createdAt,value
2017-05-07T00:00:33.244Z,12.35
2017-05-07T00:01:14.132Z,12.31
2017-05-07T00:01:55.069Z,12.31
2017-05-07T00:02:35.957Z,12.22
2017-05-07T00:03:16.839Z,12.21
2017-05-07T00:03:57.760Z,12.21
2017-05-07T00:06:02.254Z,12.21
2017-05-07T00:06:43.149Z,12.22
2017-05-07T00:07:24.046Z,12.25
2017-05-07T00:08:04.980Z,12.27
2017-05-07T00:08:45.888Z,12.21
2017-05-07T00:10:14.034Z,12.25
2017-05-07T00:10:54.973Z,12.2
2017-05-07T00:11:42.708Z,12.25
2017-05-07T00:12:23.620Z,12.24
2017-05-07T00:13:04.523Z,12.25
2017-05-07T00:13:45.400Z,12.27
2017-05-07T00:14:26.276Z,12.32
2017-05-07T00:15:07.169Z,12.35
2017-05-07T00:15:48.073Z,12.27
2017-05-07T00:16:28.983Z,12.28
2017-05-07T00:17:09.857Z,12.25
2017-05-07T00:17:53.576Z,12.25
2017-05-07T00:18:34.477Z,12.29
2017-05-07T00:19:15.363Z,12.27
2017-05-07T00:19:56.244Z,12.35
2017-05-07T00:20:37.127Z,12.24
2017-05-07T00:21:18.016Z,12.29
2017-05-07T00:21:58.902Z,12.31
2017-05-07T00:22:39.791Z,12.22
2017-05-07T00:23:20.689Z,12.27
2017-05-07T00:24:01.559Z,12.25
2017-05-07T00:24:42.443Z,12.27
2017-05-07T00:25:23.345Z,12.25
2017-05-07T00:27:17.012Z,12.24
2017-05-07T00:27:57.895Z,12.2
2017-05-07T00:28:38.814Z,12.2
2017-05-07T00:29:19.704Z,12.18
2017-05-07T00:31:11.326Z,12.18
2017-05-07T00:31:52.190Z,12.17
2017-05-07T00:32:33.085Z,12.12
2017-05-07T00:33:13.966Z,12.09
2017-05-07T00:33:54.960Z,12.2
2017-05-07T00:34:35.871Z,12.1
2017-05-07T00:35:16.752Z,12.06
2017-05-07T00:35:57.656Z,12.15
2017-05-07T00:36:38.546Z,12.09
2017-05-07T00:37:19.508Z,12.04
2017-05-07T00:38:00.398Z,12.1
2017-05-07T00:38:41.346Z,12.06
2017-05-07T00:39:22.241Z,12.03
2017-05-07T00:40:03.114Z,12.03
2017-05-07T00:42:03.639Z,12.03
2017-05-07T00:42:44.519Z,12.02
2017-05-07T00:43:25.397Z,11.99
2017-05-07T00:45:03.421Z,12.09
2017-05-07T00:45:51.236Z,12.03
2017-05-07T00:46:32.131Z,12.06
2017-05-07T00:47:13.018Z,12.06
2017-05-07T00:47:53.902Z,12.03
2017-05-07T00:48:34.778Z,11.94
2017-05-07T00:49:15.655Z,11.88
2017-05-07T00:49:56.544Z,11.86
2017-05-07T00:51:50.275Z,11.87
2017-05-07T00:52:31.170Z,11.84
2017-05-07T00:53:12.073Z,11.94
2017-05-07T00:53:52.924Z,11.88
2017-05-07T00:54:33.817Z,11.94
2017-05-07T00:55:14.805Z,11.84
2017-05-07T00:56:42.878Z,11.88
2017-05-07T00:57:38.440Z,11.9
2017-05-07T00:58:19.334Z,11.88
2017-05-07T00:59:00.241Z,11.78
2017-05-07T00:59:41.113Z,11.84
2017-05-07T01:00:22.058Z,11.84
2017-05-07T01:01:02.940Z,11.83
2017-05-07T01:02:24.832Z,11.81
2017-05-07T01:03:05.707Z,11.88
2017-05-07T01:03:46.585Z,11.86
2017-05-07T01:04:27.483Z,11.84
2017-05-07T01:05:08.365Z,11.83
2017-05-07T01:05:49.235Z,11.8
2017-05-07T01:06:30.135Z,11.8
2017-05-07T01:07:11.008Z,11.7
2017-05-07T01:07:51.903Z,11.83
2017-05-07T01:08:32.777Z,11.77
2017-05-07T01:09:13.660Z,11.83
2017-05-07T01:09:54.542Z,11.81
2017-05-07T01:10:35.433Z,11.73
2017-05-07T01:11:16.345Z,11.77
2017-05-07T01:11:57.264Z,11.87
2017-05-07T01:12:38.137Z,11.77
2017-05-07T01:13:19.031Z,11.83
2017-05-07T01:13:59.904Z,11.77
2017-05-07T01:14:40.784Z,11.83
2017-05-07T01:15:21.656Z,11.78
2017-05-07T01:16:02.536Z,11.86
2017-05-07T01:16:43.468Z,11.77
2017-05-07T01:17:24.374Z,11.83
2017-05-07T01:18:05.267Z,11.86
2017-05-07T01:19:53.514Z,11.86
2017-05-07T01:20:37.351Z,11.83
2017-05-07T01:21:18.224Z,11.95
2017-05-07T01:21:59.167Z,11.84
2017-05-07T01:22:40.025Z,11.88
2017-05-07T01:24:28.313Z,12.03
2017-05-07T01:25:09.223Z,11.99
2017-05-07T01:25:56.643Z,12.02
2017-05-07T01:26:37.553Z,12.03
2017-05-07T01:27:18.394Z,12.03
2017-05-07T01:27:59.308Z,12.07
2017-05-07T01:28:40.178Z,12.07
2017-05-07T01:29:21.071Z,12.1
2017-05-07T01:30:01.997Z,12.06
2017-05-07T01:30:42.910Z,12.06
2017-05-07T01:31:23.803Z,12.2
2017-05-07T01:32:04.701Z,12.15
2017-05-07T01:32:45.588Z,12.17
2017-05-07T01:34:40.020Z,12.31
2017-05-07T01:35:20.900Z,12.25
2017-05-07T01:36:01.824Z,12.27
2017-05-07T01:36:42.707Z,12.29
2017-05-07T01:38:47.943Z,12.28
2017-05-07T01:39:28.875Z,12.31
2017-05-07T01:42:35.956Z,12.35
2017-05-07T01:43:16.856Z,12.35
2017-05-07T01:44:12.313Z,12.36
2017-05-07T01:44:53.176Z,12.36
2017-05-07T01:45:34.152Z,12.39
2017-05-07T01:46:14.992Z,12.37
2017-05-07T01:46:55.985Z,12.32
2017-05-07T01:47:36.904Z,12.36
2017-05-07T01:48:17.828Z,12.31
2017-05-07T01:48:58.686Z,12.29
2017-05-07T01:49:39.570Z,12.36
2017-05-07T01:50:20.455Z,12.36
2017-05-07T01:51:01.361Z,12.27
2017-05-07T01:51:42.293Z,12.24
2017-05-07T01:52:23.183Z,12.31
2017-05-07T01:53:04.083Z,12.25
2017-05-07T01:53:44.962Z,12.27
2017-05-07T01:55:33.196Z,12.24
2017-05-07T01:56:51.102Z,12.2
2017-05-07T01:58:44.775Z,12.21
2017-05-07T01:59:25.673Z,12.24
2017-05-07T02:00:06.543Z,12.18
2017-05-07T02:01:02.320Z,12.1
2017-05-07T02:01:43.216Z,12.18
2017-05-07T02:02:24.124Z,12.13
2017-05-07T02:03:05.030Z,12.18
2017-05-07T02:04:00.585Z,12.17
2017-05-07T02:04:41.530Z,12.2
2017-05-07T02:05:22.397Z,12.22
2017-05-07T02:06:03.326Z,12.17
2017-05-07T02:07:21.214Z,12.21
2017-05-07T02:08:02.103Z,12.17
2017-05-07T02:08:43.023Z,12.21
2017-05-07T02:10:00.941Z,12.22
2017-05-07T02:10:41.845Z,12.2
2017-05-07T02:11:22.724Z,12.24
2017-05-07T02:12:03.629Z,12.25
2017-05-07T02:12:44.500Z,12.2
2017-05-07T02:14:32.729Z,12.21
2017-05-07T02:15:13.655Z,12.18
2017-05-07T02:16:01.290Z,12.17
2017-05-07T02:16:42.175Z,12.2
2017-05-07T02:17:23.059Z,12.17
2017-05-07T02:18:03.958Z,12.29
2017-05-07T02:18:45.651Z,12.21
2017-05-07T02:19:26.528Z,12.17
2017-05-07T02:20:07.421Z,12.22
2017-05-07T02:20:48.310Z,12.15
2017-05-07T02:21:29.190Z,12.2
2017-05-07T02:22:10.132Z,12.18
2017-05-07T02:22:51.021Z,12.15
2017-05-07T02:23:31.917Z,12.18
2017-05-07T02:24:12.803Z,12.18
2017-05-07T02:24:53.718Z,12.12
2017-05-07T02:25:49.309Z,12.25
2017-05-07T02:26:30.221Z,12.28
2017-05-07T02:27:18.088Z,12.2
2017-05-07T02:27:58.990Z,12.27
2017-05-07T02:28:39.962Z,12.24
2017-05-07T02:29:20.853Z,12.24
2017-05-07T02:30:01.780Z,12.22
2017-05-07T02:30:42.680Z,12.31
2017-05-07T02:31:23.604Z,12.27
2017-05-07T02:32:04.530Z,12.24
2017-05-07T02:32:45.498Z,12.27
2017-05-07T02:33:26.391Z,12.31
2017-05-07T02:34:07.284Z,12.36
2017-05-07T02:34:55.169Z,12.28
2017-05-07T02:35:36.095Z,12.29
2017-05-07T02:36:16.972Z,12.37
2017-05-07T02:36:57.882Z,12.37
2017-05-07T02:37:38.758Z,12.39
2017-05-07T02:38:19.681Z,12.42
2017-05-07T02:39:00.573Z,12.37
2017-05-07T02:39:41.485Z,12.4
2017-05-07T02:40:22.370Z,12.47
2017-05-07T02:41:03.243Z,12.47
2017-05-07T02:41:50.797Z,12.46
2017-05-07T02:42:31.714Z,12.4
2017-05-07T02:43:12.601Z,12.45
2017-05-07T02:43:53.484Z,12.47
2017-05-07T02:44:34.376Z,12.42
2017-05-07T02:45:15.251Z,12.4
2017-05-07T02:45:56.145Z,12.35
2017-05-07T02:48:09.889Z,12.32
2017-05-07T02:48:50.814Z,12.32
2017-05-07T02:49:31.780Z,12.29
2017-05-07T02:51:10.193Z,12.18
2017-05-07T02:51:51.094Z,12.18
2017-05-07T02:52:32.579Z,12.2
2017-05-07T02:53:13.543Z,12.17
2017-05-07T02:53:54.424Z,12.17
2017-05-07T02:54:35.355Z,12.15
2017-05-07T02:55:16.301Z,12.18
2017-05-07T02:55:57.191Z,12.25
2017-05-07T02:56:38.075Z,12.24
2017-05-07T02:57:21.930Z,12.28
2017-05-07T02:58:02.775Z,12.21
2017-05-07T02:59:36.020Z,12.25
2017-05-07T03:00:16.894Z,12.24
2017-05-07T03:00:57.797Z,12.21
2017-05-07T03:01:38.733Z,12.13
2017-05-07T03:02:19.630Z,12.09
2017-05-07T03:03:00.554Z,12.21
2017-05-07T03:03:41.454Z,12.22
2017-05-07T03:04:22.416Z,12.12
2017-05-07T03:05:03.320Z,12.03
2017-05-07T03:05:44.205Z,12.06
2017-05-07T03:06:25.107Z,12.1
2017-05-07T03:07:05.985Z,12.12
2017-05-07T03:07:46.865Z,12.1
2017-05-07T03:08:42.734Z,12.03
2017-05-07T03:09:23.629Z,12.04
2017-05-07T03:10:04.514Z,12.03
2017-05-07T03:10:45.451Z,12.04
2017-05-07T03:11:41.165Z,12.04
2017-05-07T03:12:22.075Z,12.04
2017-05-07T03:13:02.966Z,11.99
2017-05-07T03:13:43.888Z,11.86
2017-05-07T03:14:31.401Z,11.95
2017-05-07T03:15:12.273Z,11.83
2017-05-07T03:15:53.149Z,11.9
2017-05-07T03:16:34.029Z,11.86
2017-05-07T03:17:14.912Z,12
2017-05-07T03:17:55.833Z,11.86
2017-05-07T03:18:36.756Z,11.91
2017-05-07T03:19:17.616Z,11.9
2017-05-07T03:19:58.513Z,11.84
2017-05-07T03:20:39.418Z,12.03
2017-05-07T03:21:20.338Z,11.87
2017-05-07T03:22:01.286Z,11.99
2017-05-07T03:22:42.173Z,11.99
2017-05-07T03:23:23.087Z,11.95
2017-05-07T03:24:03.957Z,11.86
2017-05-07T03:24:59.409Z,11.91
2017-05-07T03:25:40.421Z,12.03
2017-05-07T03:26:21.347Z,12.03
2017-05-07T03:27:02.231Z,11.97
2017-05-07T03:27:43.111Z,11.95
2017-05-07T03:28:24.005Z,12.02
2017-05-07T03:29:04.928Z,11.99
2017-05-07T03:29:45.820Z,12
2017-05-07T03:30:26.728Z,11.99
2017-05-07T03:31:07.638Z,11.84
2017-05-07T03:31:48.526Z,11.88
2017-05-07T03:32:29.424Z,11.95
2017-05-07T03:34:27.934Z,11.94
2017-05-07T03:35:08.811Z,11.94
2017-05-07T03:35:49.750Z,12.04
2017-05-07T03:38:03.460Z,12.06
2017-05-07T03:38:44.363Z,12.1
2017-05-07T03:39:25.274Z,12.06
2017-05-07T03:40:06.215Z,12.12
2017-05-07T03:40:47.120Z,12.07
2017-05-07T03:41:28.026Z,12.09
2017-05-07T03:42:08.941Z,12.13
2017-05-07T03:42:49.867Z,12.07
2017-05-07T03:44:17.947Z,12.2
2017-05-07T03:44:58.860Z,12.21
2017-05-07T03:45:39.766Z,12.07
2017-05-07T03:46:20.659Z,12.1
2017-05-07T03:47:01.546Z,12.12
2017-05-07T03:49:15.309Z,12.09
2017-05-07T03:49:56.186Z,12.03
2017-05-07T03:50:37.107Z,12.07
2017-05-07T03:51:17.998Z,12.02
2017-05-07T03:51:58.855Z,12.03
2017-05-07T03:53:52.500Z,11.97
2017-05-07T03:54:34.341Z,12.03
2017-05-07T03:55:29.826Z,12.02
2017-05-07T03:56:12.367Z,11.99
2017-05-07T03:56:53.241Z,12.04
2017-05-07T03:57:34.165Z,12.02
2017-05-07T03:58:15.080Z,11.86
2017-05-07T03:58:55.999Z,11.91
2017-05-07T03:59:36.861Z,11.99
2017-05-07T04:00:17.749Z,11.94
2017-05-07T04:00:58.628Z,11.86
2017-05-07T04:01:39.528Z,11.94
2017-05-07T04:02:20.463Z,12.02
2017-05-07T04:03:01.314Z,11.94
2017-05-07T04:03:42.214Z,11.83
2017-05-07T04:04:24.806Z,12
2017-05-07T04:06:18.454Z,11.87
2017-05-07T04:06:59.379Z,11.99
2017-05-07T04:07:46.999Z,11.97
2017-05-07T04:08:27.903Z,11.97
2017-05-07T04:09:08.774Z,11.91
2017-05-07T04:09:49.670Z,11.97
2017-05-07T04:10:30.575Z,12
2017-05-07T04:11:11.466Z,12.07
2017-05-07T04:11:52.350Z,12.04
2017-05-07T04:12:33.273Z,12.03
2017-05-07T04:13:14.137Z,11.97
2017-05-07T04:13:55.040Z,11.86
2017-05-07T04:14:35.928Z,11.84
2017-05-07T04:15:16.866Z,11.83
2017-05-07T04:15:57.781Z,11.91
2017-05-07T04:16:38.742Z,11.86
2017-05-07T04:17:19.628Z,11.91
2017-05-07T04:18:00.548Z,11.95
2017-05-07T04:18:41.418Z,11.87
2017-05-07T04:19:22.307Z,11.9
2017-05-07T04:20:03.215Z,11.86
2017-05-07T04:20:44.077Z,11.91
2017-05-07T04:21:24.980Z,11.86
2017-05-07T04:22:05.865Z,11.86
2017-05-07T04:22:46.741Z,11.84
2017-05-07T04:23:27.650Z,11.9
2017-05-07T04:24:08.527Z,11.77
2017-05-07T04:24:49.430Z,11.95
2017-05-07T04:25:30.346Z,11.88
2017-05-07T04:26:11.248Z,11.99
2017-05-07T04:26:52.128Z,11.9
2017-05-07T04:27:33.027Z,11.94
2017-05-07T04:28:13.976Z,11.99
2017-05-07T04:30:03.229Z,11.99
2017-05-07T04:30:44.147Z,11.87
2017-05-07T04:31:25.035Z,11.99
2017-05-07T04:32:05.993Z,11.91
2017-05-07T04:32:46.913Z,11.99
2017-05-07T04:33:27.791Z,12.02
2017-05-07T04:34:08.705Z,11.97
2017-05-07T04:34:49.632Z,11.99
2017-05-07T04:35:30.520Z,12.06
2017-05-07T04:37:44.254Z,12.02
2017-05-07T04:38:25.130Z,11.94
2017-05-07T04:39:06.018Z,11.99
2017-05-07T04:39:46.967Z,12.04
2017-05-07T04:40:27.803Z,12.06
2017-05-07T04:41:08.806Z,12.09
2017-05-07T04:41:49.656Z,12
2017-05-07T04:42:30.561Z,12.07
2017-05-07T04:43:12.411Z,12
2017-05-07T04:43:53.245Z,12.02
2017-05-07T04:44:34.145Z,11.94
2017-05-07T04:45:15.024Z,11.97
2017-05-07T04:45:55.963Z,11.94
2017-05-07T04:46:36.881Z,12.04
2017-05-07T04:47:17.755Z,12.03
2017-05-07T04:47:58.642Z,12.06
2017-05-07T04:48:39.534Z,12.04
2017-05-07T04:49:20.412Z,12.02
2017-05-07T04:50:01.299Z,12.09
2017-05-07T04:50:43.100Z,12.1
2017-05-07T04:51:30.845Z,12.06
2017-05-07T04:52:11.770Z,12.04
2017-05-07T04:52:52.661Z,12.1
2017-05-07T04:53:33.572Z,12.09
2017-05-07T04:55:26.928Z,12.07
2017-05-07T04:56:07.843Z,12.09
2017-05-07T04:56:48.725Z,12.06
2017-05-07T04:57:29.618Z,11.95
2017-05-07T04:58:10.524Z,12.03
2017-05-07T04:58:51.401Z,12.03
2017-05-07T05:00:19.849Z,12.07
2017-05-07T05:01:00.728Z,12.12
2017-05-07T05:01:41.622Z,12.15
2017-05-07T05:02:22.507Z,12.1
2017-05-07T05:03:03.413Z,12.2
2017-05-07T05:03:44.314Z,12.2
2017-05-07T05:04:25.203Z,12.15
2017-05-07T05:05:06.084Z,12.21
2017-05-07T05:05:47.003Z,12.24
2017-05-07T05:06:27.847Z,12.25
2017-05-07T05:07:08.792Z,12.24
2017-05-07T05:08:47.762Z,12.18
2017-05-07T05:09:28.632Z,12.18
2017-05-07T05:10:09.498Z,12.15
2017-05-07T05:10:50.389Z,12.12
2017-05-07T05:11:31.332Z,12.09
2017-05-07T05:12:12.236Z,12.18
2017-05-07T05:12:53.122Z,12.15
2017-05-07T05:13:34.041Z,12.27
2017-05-07T05:14:14.972Z,12.35
2017-05-07T05:14:55.913Z,12.25
2017-05-07T05:15:36.831Z,12.22
2017-05-07T05:16:17.726Z,12.24
2017-05-07T05:16:58.670Z,12.29
2017-05-07T05:17:39.572Z,12.36
2017-05-07T05:18:20.466Z,12.27
2017-05-07T05:19:01.333Z,12.2
2017-05-07T05:20:19.195Z,12.24
2017-05-07T05:21:00.119Z,12.18
2017-05-07T05:21:40.967Z,12.27
2017-05-07T05:22:21.871Z,12.29
2017-05-07T05:23:02.746Z,12.35
2017-05-07T05:23:43.661Z,12.37
2017-05-07T05:24:24.533Z,12.39
2017-05-07T05:25:05.397Z,12.39
2017-05-07T05:25:46.380Z,12.37
2017-05-07T05:26:27.271Z,12.5
2017-05-07T05:27:11.081Z,12.36
2017-05-07T05:27:51.917Z,12.4
2017-05-07T05:28:32.802Z,12.36
2017-05-07T05:29:13.720Z,12.35
2017-05-07T05:29:54.607Z,12.37
2017-05-07T05:30:35.506Z,12.36
2017-05-07T05:31:16.386Z,12.36
2017-05-07T05:31:57.268Z,12.37
2017-05-07T05:32:38.172Z,12.46
2017-05-07T05:33:19.060Z,12.39
2017-05-07T05:33:59.951Z,12.47
2017-05-07T05:34:40.863Z,12.49
2017-05-07T05:35:21.760Z,12.5
2017-05-07T05:36:02.683Z,12.54
2017-05-07T05:38:16.483Z,12.68
2017-05-07T05:38:57.385Z,12.58
2017-05-07T05:39:38.336Z,12.47
2017-05-07T05:40:19.241Z,12.54
2017-05-07T05:41:00.129Z,12.58
2017-05-07T05:41:41.089Z,12.6
2017-05-07T05:42:21.964Z,12.46
2017-05-07T05:43:02.849Z,12.6
2017-05-07T05:43:43.773Z,12.58
2017-05-07T05:44:24.680Z,12.61
2017-05-07T05:45:05.583Z,12.58
2017-05-07T05:45:46.486Z,12.6
2017-05-07T05:46:27.383Z,12.65
2017-05-07T05:47:08.282Z,12.61
2017-05-07T05:47:49.178Z,12.6
2017-05-07T05:48:30.077Z,12.7
2017-05-07T05:49:11.046Z,12.58
2017-05-07T05:49:51.930Z,12.72
2017-05-07T05:50:32.847Z,12.68
2017-05-07T05:51:13.731Z,12.65
2017-05-07T05:51:54.622Z,12.73
2017-05-07T05:52:35.513Z,12.7
2017-05-07T05:53:16.445Z,12.64
2017-05-07T05:53:57.347Z,12.64
2017-05-07T05:54:38.262Z,12.61
2017-05-07T05:55:19.112Z,12.47
2017-05-07T05:56:00.012Z,12.58
2017-05-07T05:56:40.924Z,12.62
2017-05-07T05:57:21.840Z,12.53
2017-05-07T05:58:02.742Z,12.42
2017-05-07T05:58:43.621Z,12.49
2017-05-07T05:59:24.512Z,12.6
2017-05-07T06:00:05.413Z,12.53
2017-05-07T06:00:46.384Z,12.57
2017-05-07T06:01:27.294Z,12.72
2017-05-07T06:02:08.169Z,12.67
2017-05-07T06:02:49.060Z,12.67
2017-05-07T06:03:29.992Z,12.79
2017-05-07T06:04:10.864Z,12.79
2017-05-07T06:04:51.725Z,12.79
2017-05-07T06:05:32.663Z,12.83
2017-05-07T06:06:13.560Z,12.87
2017-05-07T06:06:54.443Z,12.79
2017-05-07T06:07:35.323Z,12.75
2017-05-07T06:08:16.206Z,12.76
2017-05-07T06:08:57.077Z,12.9
2017-05-07T06:09:38.025Z,12.87
2017-05-07T06:10:18.906Z,12.76
2017-05-07T06:10:59.803Z,12.82
2017-05-07T06:11:40.690Z,12.76
2017-05-07T06:12:21.584Z,12.82
2017-05-07T06:13:02.472Z,12.76
2017-05-07T06:13:43.359Z,12.72
2017-05-07T06:14:24.356Z,12.68
2017-05-07T06:15:05.248Z,12.58
2017-05-07T06:15:48.844Z,12.67
2017-05-07T06:16:29.754Z,12.72
2017-05-07T06:17:10.656Z,12.67
2017-05-07T06:17:51.549Z,12.82
2017-05-07T06:18:32.442Z,12.85
2017-05-07T06:19:13.346Z,12.68
2017-05-07T06:19:54.316Z,12.62
2017-05-07T06:20:49.782Z,12.61
2017-05-07T06:21:30.677Z,12.53
2017-05-07T06:22:11.600Z,12.42
2017-05-07T06:22:52.594Z,12.47
2017-05-07T06:23:33.579Z,12.47
2017-05-07T06:26:54.621Z,12.58
2017-05-07T06:27:35.503Z,12.54
2017-05-07T06:28:16.418Z,12.55
2017-05-07T06:28:57.298Z,12.6
2017-05-07T06:29:38.973Z,12.55
2017-05-07T06:30:19.925Z,12.55
2017-05-07T06:31:00.838Z,12.49
2017-05-07T06:31:41.726Z,12.58
2017-05-07T06:32:22.640Z,12.49
2017-05-07T06:33:41.571Z,12.45
2017-05-07T06:34:22.446Z,12.49
2017-05-07T06:35:03.338Z,12.46
2017-05-07T06:35:44.258Z,12.47
2017-05-07T06:37:02.126Z,12.37
2017-05-07T06:37:43.036Z,12.37
2017-05-07T06:38:30.458Z,12.37
2017-05-07T06:39:11.348Z,12.39
2017-05-07T06:39:52.264Z,12.4
2017-05-07T06:40:33.251Z,12.46
2017-05-07T06:41:14.173Z,12.39
2017-05-07T06:41:55.030Z,12.39
2017-05-07T06:42:35.962Z,12.5
2017-05-07T06:43:16.910Z,12.5
2017-05-07T06:43:57.804Z,12.45
2017-05-07T06:44:38.704Z,12.45
2017-05-07T06:45:19.575Z,12.47
2017-05-07T06:46:00.491Z,12.47
2017-05-07T06:46:41.421Z,12.5
2017-05-07T06:47:22.332Z,12.54
2017-05-07T06:48:03.223Z,12.45
2017-05-07T06:48:44.111Z,12.57
2017-05-07T06:49:24.988Z,12.6
2017-05-07T06:50:20.502Z,12.61
2017-05-07T06:51:01.347Z,12.62
2017-05-07T06:51:42.252Z,12.68
2017-05-07T06:52:23.120Z,12.82
2017-05-07T06:54:21.676Z,12.79
2017-05-07T06:55:02.642Z,12.78
2017-05-07T06:55:43.518Z,12.83
2017-05-07T06:56:24.422Z,12.85
2017-05-07T06:57:05.329Z,12.87
2017-05-07T06:58:44.330Z,12.87
2017-05-07T06:59:25.259Z,12.87
2017-05-07T07:00:53.415Z,12.67
2017-05-07T07:01:34.270Z,12.68
2017-05-07T07:02:15.198Z,12.78
2017-05-07T07:02:56.064Z,12.85
2017-05-07T07:03:36.969Z,12.87
2017-05-07T07:04:17.857Z,12.93
2017-05-07T07:05:05.701Z,12.97
2017-05-07T07:05:46.634Z,13.09
2017-05-07T07:06:27.522Z,13.15
2017-05-07T07:07:08.410Z,13.12
2017-05-07T07:07:49.310Z,13.12
2017-05-07T07:08:30.197Z,13.04
2017-05-07T07:09:11.113Z,13.08
2017-05-07T07:09:52.013Z,13.01
2017-05-07T07:10:32.949Z,12.95
2017-05-07T07:11:13.838Z,12.97
2017-05-07T07:11:54.785Z,12.97
2017-05-07T07:12:35.723Z,12.98
2017-05-07T07:13:16.616Z,13.03
2017-05-07T07:13:57.489Z,13.03
2017-05-07T07:14:38.368Z,13.04
2017-05-07T07:15:19.272Z,13.05
2017-05-07T07:16:00.147Z,13.05
2017-05-07T07:16:41.036Z,13.13
2017-05-07T07:17:21.963Z,13.18
2017-05-07T07:18:02.846Z,13.13
2017-05-07T07:18:43.859Z,13.19
2017-05-07T07:19:24.795Z,13.18
2017-05-07T07:20:05.701Z,13.15
2017-05-07T07:20:46.587Z,13.15
2017-05-07T07:21:27.488Z,13.16
2017-05-07T07:22:08.393Z,13.2
2017-05-07T07:22:49.324Z,13.2
2017-05-07T07:23:30.176Z,13.28
2017-05-07T07:24:11.094Z,13.3
2017-05-07T07:24:52.000Z,13.09
2017-05-07T07:25:32.900Z,13.15
2017-05-07T07:26:13.832Z,13.2
2017-05-07T07:28:07.453Z,13.25
2017-05-07T07:28:48.341Z,13.25
2017-05-07T07:29:29.232Z,13.18
2017-05-07T07:30:10.101Z,13.28
2017-05-07T07:30:50.974Z,13.3
2017-05-07T07:31:31.872Z,13.18
2017-05-07T07:32:12.762Z,13.23
2017-05-07T07:32:53.677Z,13.25
2017-05-07T07:33:34.541Z,13.37
2017-05-07T07:34:15.435Z,13.46
2017-05-07T07:34:56.318Z,13.37
2017-05-07T07:35:38.061Z,13.39
2017-05-07T07:36:18.972Z,13.49
2017-05-07T07:36:59.856Z,13.46
2017-05-07T07:37:40.765Z,13.52
2017-05-07T07:38:24.333Z,13.56
2017-05-07T07:39:05.205Z,13.54
2017-05-07T07:39:46.095Z,13.56
2017-05-07T07:40:26.978Z,13.65
2017-05-07T07:41:07.858Z,13.62
2017-05-07T07:41:48.735Z,13.67
2017-05-07T07:42:29.632Z,13.68
2017-05-07T07:43:10.498Z,13.68
2017-05-07T07:43:51.416Z,13.67
2017-05-07T07:44:32.294Z,13.74
2017-05-07T07:45:13.191Z,13.7
2017-05-07T07:45:54.201Z,13.72
2017-05-07T07:46:35.108Z,13.57
2017-05-07T07:47:16.045Z,13.49
2017-05-07T07:48:33.993Z,13.41
2017-05-07T07:49:14.866Z,13.41
2017-05-07T07:49:55.785Z,13.47
2017-05-07T07:50:36.670Z,13.56
2017-05-07T07:51:17.580Z,13.67
2017-05-07T07:53:16.164Z,13.75
2017-05-07T07:53:57.065Z,13.77
2017-05-07T07:54:37.948Z,13.87
2017-05-07T07:55:18.895Z,13.99
2017-05-07T07:55:59.756Z,14
2017-05-07T07:56:40.644Z,14.08
2017-05-07T07:57:21.577Z,14.2
2017-05-07T07:58:02.485Z,14.23
2017-05-07T07:58:49.989Z,14.2
2017-05-07T07:59:30.910Z,14.2
2017-05-07T08:00:11.805Z,14.23
2017-05-07T08:00:52.725Z,14.15
2017-05-07T08:01:33.645Z,14.17
2017-05-07T08:02:14.539Z,14.22
2017-05-07T08:02:55.420Z,14.26
2017-05-07T08:03:36.345Z,14.23
2017-05-07T08:04:17.263Z,14.17
2017-05-07T08:04:58.151Z,14.3
2017-05-07T08:05:39.091Z,14.23
2017-05-07T08:06:20.013Z,14.32
2017-05-07T08:07:00.942Z,14.35
2017-05-07T08:07:41.844Z,14.45
2017-05-07T08:08:22.825Z,14.41
2017-05-07T08:09:03.673Z,14.2
2017-05-07T08:09:44.581Z,14.18
2017-05-07T08:10:25.498Z,14.29
2017-05-07T08:11:06.403Z,14.3
2017-05-07T08:11:47.264Z,14.25
2017-05-07T08:12:28.175Z,14.17
2017-05-07T08:13:09.048Z,14.07
2017-05-07T08:13:49.925Z,14.04
2017-05-07T08:14:30.880Z,14.28
2017-05-07T08:15:11.733Z,14.36
2017-05-07T08:15:52.636Z,14.37
2017-05-07T08:16:33.583Z,14.47
2017-05-07T08:17:14.512Z,14.5
2017-05-07T08:17:55.455Z,14.66
2017-05-07T08:18:36.340Z,14.69
2017-05-07T08:19:17.258Z,14.77
2017-05-07T08:19:58.190Z,14.88
2017-05-07T08:20:39.087Z,14.99
2017-05-07T08:21:19.976Z,15.15
2017-05-07T08:22:00.888Z,15.21
2017-05-07T08:22:41.890Z,15.37
2017-05-07T08:23:22.758Z,15.37
2017-05-07T08:24:03.624Z,15.22
2017-05-07T08:24:44.552Z,15.17
2017-05-07T08:26:18.791Z,15.36
2017-05-07T08:26:59.732Z,15.47
2017-05-07T08:27:40.633Z,15.51
2017-05-07T08:28:21.534Z,15.52
2017-05-07T08:29:02.495Z,15.61
2017-05-07T08:29:43.382Z,15.65
2017-05-07T08:30:24.261Z,15.62
2017-05-07T08:31:05.136Z,15.62
2017-05-07T08:31:46.065Z,15.47
2017-05-07T08:32:26.951Z,15.46
2017-05-07T08:33:07.843Z,15.44
2017-05-07T08:33:48.782Z,15.37
2017-05-07T08:34:29.708Z,15.39
2017-05-07T08:35:10.595Z,15.51
2017-05-07T08:35:51.471Z,15.49
2017-05-07T08:36:32.403Z,15.54
2017-05-07T08:38:00.606Z,15.62
2017-05-07T08:38:41.438Z,15.75
2017-05-07T08:39:22.381Z,15.72
2017-05-07T08:40:03.288Z,15.77
2017-05-07T08:40:44.203Z,15.75
2017-05-07T08:41:25.091Z,15.75
2017-05-07T08:42:06.012Z,15.82
2017-05-07T08:42:46.961Z,15.9
2017-05-07T08:44:23.226Z,15.9
2017-05-07T08:45:04.190Z,15.92
2017-05-07T08:45:45.114Z,15.97
2017-05-07T08:46:26.008Z,16.01
2017-05-07T08:47:06.964Z,16.24
2017-05-07T08:47:47.948Z,16.31
2017-05-07T08:48:28.846Z,16.43
2017-05-07T08:49:09.767Z,16.46
2017-05-07T08:49:50.637Z,16.56
2017-05-07T08:50:31.526Z,16.81
2017-05-07T08:51:12.410Z,16.72
2017-05-07T08:51:53.339Z,16.74
2017-05-07T08:52:34.219Z,16.91
2017-05-07T08:53:15.101Z,17.02
2017-05-07T08:54:43.241Z,17.57
2017-05-07T08:55:24.175Z,17.76
2017-05-07T08:56:05.067Z,17.95
2017-05-07T08:56:46.035Z,18.08
2017-05-07T08:57:26.945Z,18.23
2017-05-07T08:58:07.851Z,18.19
2017-05-07T08:58:48.765Z,18.04
2017-05-07T09:00:06.708Z,18.35
2017-05-07T09:01:34.985Z,18.31
2017-05-07T09:02:15.872Z,18.25
2017-05-07T09:03:54.365Z,18.4
2017-05-07T09:04:35.159Z,18.44
2017-05-07T09:05:16.044Z,18.33
2017-05-07T09:05:57.018Z,18.35
2017-05-07T09:06:37.937Z,18.29
2017-05-07T09:07:18.869Z,18.22
2017-05-07T09:07:59.779Z,18.19
2017-05-07T09:08:40.709Z,18.22
2017-05-07T09:09:21.614Z,18.07
2017-05-07T09:10:02.500Z,18.04
2017-05-07T09:10:43.392Z,17.94
2017-05-07T09:11:24.290Z,17.89
2017-05-07T09:12:05.184Z,17.86
2017-05-07T09:12:46.093Z,17.6
2017-05-07T09:13:27.012Z,17.24
2017-05-07T09:14:07.925Z,17.3
2017-05-07T09:14:48.813Z,17.04
2017-05-07T09:15:29.884Z,17.02
2017-05-07T09:16:10.659Z,17.09
2017-05-07T09:16:51.559Z,17.05
2017-05-07T09:17:32.458Z,17.05
2017-05-07T09:18:13.354Z,17.29
2017-05-07T09:18:54.258Z,17.26
2017-05-07T09:19:35.163Z,17.29
2017-05-07T09:20:16.060Z,17.24
2017-05-07T09:20:56.960Z,17.14
2017-05-07T09:21:37.854Z,17.04
2017-05-07T09:23:13.326Z,16.86
2017-05-07T09:23:54.214Z,16.65
2017-05-07T09:24:35.147Z,16.69
2017-05-07T09:25:16.019Z,16.68
2017-05-07T09:25:56.968Z,16.68
2017-05-07T09:26:40.622Z,16.87
2017-05-07T09:27:21.514Z,16.84
2017-05-07T09:28:02.399Z,16.96
2017-05-07T09:28:43.290Z,17.05
2017-05-07T09:29:24.192Z,17.06
2017-05-07T09:30:05.112Z,17.09
2017-05-07T09:30:46.099Z,17.12
2017-05-07T09:31:26.964Z,16.9
2017-05-07T09:32:07.844Z,17.04
2017-05-07T09:32:48.728Z,17.02
2017-05-07T09:33:29.606Z,17.04
2017-05-07T09:34:12.292Z,17.04
2017-05-07T09:35:06.918Z,17.23
2017-05-07T09:35:47.804Z,17.3
2017-05-07T09:37:15.929Z,17.31
2017-05-07T09:37:56.830Z,17.65
2017-05-07T09:38:37.799Z,17.56
2017-05-07T09:39:18.696Z,17.74
2017-05-07T09:39:59.580Z,17.97
2017-05-07T09:40:40.521Z,18.05
2017-05-07T09:41:21.429Z,18.07
2017-05-07T09:42:02.303Z,18.16
2017-05-07T09:42:43.205Z,18.34
2017-05-07T09:43:24.087Z,18.5
2017-05-07T09:44:05.723Z,18.73
2017-05-07T09:44:46.621Z,18.63
2017-05-07T09:45:30.451Z,18.68
2017-05-07T09:46:11.362Z,18.88
2017-05-07T09:46:52.261Z,19.08
2017-05-07T09:47:33.150Z,19.26
2017-05-07T09:48:14.089Z,19.21
2017-05-07T09:48:54.993Z,19.22
2017-05-07T09:49:35.895Z,19.18
2017-05-07T09:50:16.817Z,19.21
2017-05-07T09:50:59.228Z,19.22
2017-05-07T09:51:43.304Z,19.37
2017-05-07T09:52:24.208Z,19.48